createdAt,value
2023-04-27T00:00:23.130Z,18.92
2023-04-27T00:02:48.955Z,18.91
2023-04-27T00:05:14.813Z,18.93
2023-04-27T00:07:40.595Z,18.91
2023-04-27T00:10:07.118Z,18.92
2023-04-27T00:12:32.767Z,18.92
2023-04-27T00:14:58.676Z,18.93
2023-04-27T00:17:24.354Z,18.91
2023-04-27T00:19:50.194Z,18.92
2023-04-27T00:22:15.931Z,18.92
2023-04-27T00:24:41.603Z,18.91
2023-04-27T00:27:07.254Z,18.91
2023-04-27T00:29:32.913Z,18.91
2023-04-27T00:31:58.622Z,18.91
2023-04-27T00:34:24.366Z,18.91
2023-04-27T00:36:50.014Z,18.91
2023-04-27T00:39:16.381Z,18.92
2023-04-27T00:41:42.126Z,18.92
2023-04-27T00:44:07.793Z,18.91
2023-04-27T00:46:34.030Z,18.91
2023-04-27T00:49:00.181Z,18.91
2023-04-27T00:51:29.314Z,18.91
2023-04-27T00:53:57.308Z,18.90
2023-04-27T00:56:23.061Z,18.92
2023-04-27T00:58:49.029Z,18.91
2023-04-27T01:01:14.840Z,18.91
2023-04-27T01:03:41.151Z,18.91
2023-04-27T01:06:07.015Z,18.90
2023-04-27T01:08:32.736Z,18.90
2023-04-27T01:10:58.427Z,18.89
2023-04-27T01:13:24.134Z,18.91
2023-04-27T01:15:49.891Z,18.90
2023-04-27T01:18:15.530Z,18.90
2023-04-27T01:20:41.403Z,18.90
2023-04-27T01:23:07.045Z,18.89
2023-04-27T01:25:32.916Z,18.90
2023-04-27T01:27:58.638Z,18.90
2023-04-27T01:30:24.358Z,18.90
2023-04-27T01:32:50.338Z,18.90
2023-04-27T01:35:16.209Z,18.90
2023-04-27T01:37:41.885Z,18.90
2023-04-27T01:40:07.947Z,18.89
2023-04-27T01:42:33.613Z,18.90
2023-04-27T01:44:59.877Z,18.89
2023-04-27T01:47:26.698Z,18.89
2023-04-27T01:49:52.433Z,18.90
2023-04-27T01:52:18.179Z,18.89
2023-04-27T01:54:43.827Z,18.88
2023-04-27T01:57:09.523Z,18.89
2023-04-27T01:59:35.218Z,18.89
2023-04-27T02:02:00.961Z,18.89
2023-04-27T02:04:26.741Z,18.89
2023-04-27T02:06:52.529Z,18.89
2023-04-27T02:09:18.176Z,18.90
2023-04-27T02:11:43.848Z,18.88
2023-04-27T02:14:09.514Z,18.89
2023-04-27T02:16:35.341Z,18.89
2023-04-27T02:19:01.111Z,18.89
2023-04-27T02:21:27.674Z,18.89
2023-04-27T02:23:53.430Z,18.88
2023-04-27T02:26:20.046Z,18.88
2023-04-27T02:28:46.799Z,18.88
2023-04-27T02:31:13.792Z,18.89
2023-04-27T02:33:40.516Z,18.89
2023-04-27T02:36:07.607Z,18.88
2023-04-27T02:38:33.382Z,18.89
2023-04-27T02:40:59.111Z,18.88
2023-04-27T02:43:24.750Z,18.88
2023-04-27T02:45:50.503Z,18.88
2023-04-27T02:48:16.145Z,18.88
2023-04-27T02:50:42.456Z,18.88
2023-04-27T02:53:08.565Z,18.88
2023-04-27T02:55:34.356Z,18.88
2023-04-27T02:58:00.067Z,18.87
2023-04-27T03:00:26.175Z,18.88
2023-04-27T03:02:52.016Z,18.87
2023-04-27T03:05:18.033Z,18.87
2023-04-27T03:07:43.783Z,18.87
2023-04-27T03:10:09.843Z,18.87
2023-04-27T03:12:35.566Z,18.87
2023-04-27T03:15:01.280Z,18.87
2023-04-27T03:17:27.179Z,18.88
2023-04-27T03:19:52.998Z,18.87
2023-04-27T03:22:18.698Z,18.87
2023-04-27T03:24:44.464Z,18.86
2023-04-27T03:27:10.991Z,18.87
2023-04-27T03:29:36.640Z,18.87
2023-04-27T03:32:03.690Z,18.86
2023-04-27T03:34:29.825Z,18.86
2023-04-27T03:36:56.030Z,18.87
2023-04-27T03:39:22.096Z,18.88
2023-04-27T03:41:47.737Z,18.87
2023-04-27T03:44:13.414Z,18.88
2023-04-27T03:46:39.065Z,18.87
2023-04-27T03:49:04.721Z,18.87
2023-04-27T03:51:32.555Z,18.86
2023-04-27T03:53:58.450Z,18.86
2023-04-27T03:56:24.225Z,18.86
2023-04-27T03:58:49.885Z,18.86
2023-04-27T04:01:15.923Z,18.86
2023-04-27T04:03:42.070Z,18.86
2023-04-27T04:06:07.976Z,18.88
2023-04-27T04:08:33.694Z,18.87
2023-04-27T04:10:59.972Z,18.87
2023-04-27T04:13:26.170Z,18.86
2023-04-27T04:16:08.748Z,18.87
2023-04-27T04:18:35.326Z,18.87
2023-04-27T04:21:01.461Z,18.86
2023-04-27T04:23:27.215Z,18.86
2023-04-27T04:25:55.558Z,18.86
2023-04-27T04:28:21.744Z,18.87
2023-04-27T04:30:47.461Z,18.85
2023-04-27T04:33:13.096Z,18.85
2023-04-27T04:35:40.636Z,18.85
2023-04-27T04:38:06.578Z,18.86
2023-04-27T04:40:32.280Z,18.87
2023-04-27T04:42:57.925Z,18.86
2023-04-27T04:45:23.592Z,18.86
2023-04-27T04:47:49.389Z,18.86
2023-04-27T04:50:15.098Z,18.86
2023-04-27T04:52:40.748Z,18.87
2023-04-27T04:55:06.564Z,18.87
2023-04-27T04:57:32.249Z,18.85
2023-04-27T04:59:58.047Z,18.85
2023-04-27T05:02:23.826Z,18.84
2023-04-27T05:04:51.387Z,18.84
2023-04-27T05:07:20.183Z,18.84
2023-04-27T05:09:49.062Z,18.84
2023-04-27T05:12:14.706Z,18.85
2023-04-27T05:14:40.350Z,18.84
2023-04-27T05:17:06.033Z,18.85
2023-04-27T05:19:31.673Z,18.84
2023-04-27T05:21:57.896Z,18.84
2023-04-27T05:24:25.463Z,18.85
2023-04-27T05:26:51.116Z,18.85
2023-04-27T05:29:16.893Z,18.85
2023-04-27T05:31:42.631Z,18.84
2023-04-27T05:34:09.154Z,18.84
2023-04-27T05:36:35.444Z,18.83
2023-04-27T05:39:01.912Z,18.84
2023-04-27T05:41:29.015Z,18.83
2023-04-27T05:43:54.674Z,18.69
2023-04-27T05:46:20.678Z,18.54
2023-04-27T05:48:46.457Z,18.43
2023-04-27T05:51:12.542Z,18.39
2023-04-27T05:53:38.227Z,18.44
2023-04-27T05:56:05.882Z,18.39
2023-04-27T05:58:32.393Z,18.44
2023-04-27T06:00:59.119Z,18.41
2023-04-27T06:03:25.370Z,18.61
2023-04-27T06:05:58.108Z,18.71
2023-04-27T06:08:24.611Z,18.76
2023-04-27T06:10:50.577Z,18.78
2023-04-27T06:13:16.690Z,18.80
2023-04-27T06:15:42.770Z,18.83
2023-04-27T06:18:08.498Z,18.84
2023-04-27T06:20:34.278Z,18.84
2023-04-27T06:23:00.465Z,18.87
2023-04-27T06:25:27.807Z,18.87
2023-04-27T06:27:55.488Z,18.87
2023-04-27T06:30:21.785Z,18.88
2023-04-27T06:32:48.103Z,18.88
2023-04-27T06:35:13.815Z,18.88
2023-04-27T06:37:39.479Z,18.89
2023-04-27T06:40:06.092Z,18.91
2023-04-27T06:42:31.757Z,18.91
2023-04-27T06:44:57.906Z,18.94
2023-04-27T06:47:23.617Z,18.93
2023-04-27T06:49:49.861Z,18.93
2023-04-27T06:52:16.100Z,18.93
2023-04-27T06:54:42.012Z,18.97
2023-04-27T06:57:07.681Z,18.96
2023-04-27T06:59:33.453Z,18.97
2023-04-27T07:01:59.292Z,18.96
2023-04-27T07:04:25.290Z,18.96
2023-04-27T07:06:51.008Z,18.75
2023-04-27T07:09:26.444Z,18.91
2023-04-27T07:11:53.038Z,18.94
2023-04-27T07:14:18.692Z,18.93
2023-04-27T07:16:44.370Z,18.91
2023-04-27T07:19:10.248Z,18.94
2023-04-27T07:21:36.038Z,18.93
2023-04-27T07:24:02.195Z,18.91
2023-04-27T07:26:27.839Z,18.94
2023-04-27T07:28:54.281Z,18.94
2023-04-27T07:31:20.023Z,18.95
2023-04-27T07:33:45.885Z,18.92
2023-04-27T07:36:11.526Z,18.95
2023-04-27T07:38:37.653Z,18.93
2023-04-27T07:41:04.862Z,18.95
2023-04-27T07:43:32.138Z,18.94
2023-04-27T07:45:57.834Z,18.95
2023-04-27T07:48:23.944Z,18.94
2023-04-27T07:50:50.165Z,18.93
2023-04-27T07:53:16.204Z,18.93
2023-04-27T07:55:43.682Z,18.91
2023-04-27T07:58:09.779Z,18.94
2023-04-27T08:00:35.737Z,18.95
2023-04-27T08:03:01.935Z,18.95
2023-04-27T08:05:28.178Z,18.97
2023-04-27T08:07:54.830Z,18.99
2023-04-27T08:10:20.796Z,18.99
2023-04-27T08:12:46.474Z,19.00
2023-04-27T08:15:12.220Z,18.98
2023-04-27T08:17:40.924Z,18.98
2023-04-27T08:20:10.571Z,18.98
2023-04-27T08:22:37.512Z,18.99
2023-04-27T08:25:03.841Z,18.99
2023-04-27T08:27:30.136Z,18.99
2023-04-27T08:29:55.790Z,18.99
2023-04-27T08:32:21.454Z,18.97
2023-04-27T08:34:47.152Z,18.91
2023-04-27T08:37:12.919Z,17.75
2023-04-27T08:39:38.608Z,18.22
2023-04-27T08:42:12.100Z,18.61
2023-04-27T08:44:41.688Z,18.77
2023-04-27T08:47:08.251Z,18.84
2023-04-27T08:49:34.621Z,18.87
2023-04-27T08:52:01.141Z,18.89
2023-04-27T08:54:26.871Z,18.92
2023-04-27T08:56:52.542Z,18.92
2023-04-27T08:59:18.195Z,18.93
2023-04-27T09:01:45.674Z,18.94
2023-04-27T09:04:11.610Z,18.95
2023-04-27T09:06:37.517Z,18.96
2023-04-27T09:09:03.338Z,18.95
2023-04-27T09:14:22.014Z,19.02
2023-04-27T09:16:56.728Z,19.01
2023-04-27T09:19:26.118Z,19.03
2023-04-27T09:22:03.759Z,18.98
2023-04-27T09:24:29.752Z,19.00
2023-04-27T09:26:55.402Z,19.02
2023-04-27T09:29:31.659Z,19.03
2023-04-27T09:31:57.437Z,19.03
2023-04-27T09:34:23.230Z,19.04
2023-04-27T09:36:49.142Z,19.04
2023-04-27T09:39:15.575Z,19.05
2023-04-27T09:41:41.419Z,18.84
2023-04-27T09:44:07.800Z,18.97
2023-04-27T09:46:33.758Z,19.02
2023-04-27T09:49:00.646Z,19.01
2023-04-27T09:51:27.866Z,19.02
2023-04-27T09:53:55.813Z,19.04
2023-04-27T09:57:01.648Z,19.05
2023-04-27T09:59:40.014Z,19.03
2023-04-27T10:02:20.817Z,19.04
2023-04-27T10:05:13.651Z,18.89
2023-04-27T10:07:40.455Z,19.03
2023-04-27T10:10:06.553Z,19.07
2023-04-27T10:12:35.587Z,19.08
2023-04-27T10:15:12.251Z,19.06
2023-04-27T10:17:37.995Z,19.07
2023-04-27T10:20:06.736Z,19.08
2023-04-27T10:22:41.329Z,19.09
2023-04-27T10:25:28.819Z,19.07
2023-04-27T10:27:57.288Z,19.06
2023-04-27T10:30:23.612Z,19.11
2023-04-27T10:32:51.079Z,19.12
2023-04-27T10:35:16.980Z,19.13
2023-04-27T10:37:42.988Z,19.12
2023-04-27T10:40:13.757Z,19.12
2023-04-27T10:42:40.652Z,19.13
2023-04-27T10:45:07.291Z,19.15
2023-04-27T10:47:37.620Z,19.14
2023-04-27T10:50:05.265Z,19.14
2023-04-27T10:52:31.013Z,19.14
2023-04-27T10:54:56.873Z,19.13
2023-04-27T10:57:22.574Z,19.15
2023-04-27T10:59:50.860Z,19.15
2023-04-27T11:02:16.526Z,19.15
2023-04-27T11:04:42.326Z,19.14
2023-04-27T11:07:09.350Z,19.14
2023-04-27T11:09:37.241Z,19.15
2023-04-27T11:12:06.271Z,19.15
2023-04-27T11:14:31.951Z,19.15
2023-04-27T11:16:57.807Z,19.15
2023-04-27T11:19:23.445Z,19.15
2023-04-27T11:21:49.130Z,19.15
2023-04-27T11:24:15.565Z,19.14
2023-04-27T11:26:41.418Z,19.14
2023-04-27T11:29:11.468Z,19.15
2023-04-27T11:31:41.105Z,19.14
2023-04-27T11:34:07.896Z,19.11
2023-04-27T11:36:33.686Z,19.13
2023-04-27T11:38:59.420Z,19.15
2023-04-27T11:41:34.294Z,19.16
2023-04-27T11:44:05.548Z,19.16
2023-04-27T11:46:31.246Z,19.16
2023-04-27T11:49:05.420Z,19.16
2023-04-27T11:51:32.349Z,19.16
2023-04-27T11:54:04.332Z,19.15
2023-04-27T11:56:39.092Z,19.16
2023-04-27T11:59:05.121Z,19.17
2023-04-27T12:01:38.270Z,19.16
2023-04-27T12:04:04.499Z,19.15
2023-04-27T12:06:33.245Z,19.17
2023-04-27T12:08:59.360Z,19.15
2023-04-27T12:11:26.908Z,19.16
2023-04-27T12:13:53.249Z,19.10
2023-04-27T12:16:21.318Z,19.14
2023-04-27T12:18:48.630Z,19.14
2023-04-27T12:21:14.796Z,19.15
2023-04-27T12:23:40.805Z,19.14
2023-04-27T12:26:06.539Z,19.15
2023-04-27T12:28:32.262Z,19.17
2023-04-27T12:30:58.106Z,19.14
2023-04-27T12:33:24.076Z,19.14
2023-04-27T12:35:49.790Z,19.16
2023-04-27T12:38:15.567Z,19.16
2023-04-27T12:40:41.288Z,19.16
2023-04-27T12:43:08.041Z,19.17
2023-04-27T12:45:33.688Z,19.17
2023-04-27T12:48:03.748Z,19.19
2023-04-27T12:50:31.297Z,19.17
2023-04-27T12:52:56.935Z,19.15
2023-04-27T12:55:33.116Z,19.17
2023-04-27T12:58:00.249Z,19.16
2023-04-27T13:00:25.992Z,19.17
2023-04-27T13:02:51.980Z,19.17
2023-04-27T13:05:17.747Z,19.18
2023-04-27T13:07:43.402Z,19.16
2023-04-27T13:10:10.757Z,19.15
2023-04-27T13:12:36.457Z,19.15
2023-04-27T13:15:02.435Z,19.17
2023-04-27T13:17:28.096Z,19.18
2023-04-27T13:19:53.758Z,19.18
2023-04-27T13:22:20.165Z,19.17
2023-04-27T13:24:46.155Z,19.16
2023-04-27T13:27:11.821Z,19.16
2023-04-27T13:29:37.523Z,19.14
2023-04-27T13:32:03.251Z,19.16
2023-04-27T13:34:29.471Z,19.14
2023-04-27T13:36:55.134Z,19.17
2023-04-27T13:39:21.299Z,19.17
2023-04-27T13:41:47.138Z,19.18
2023-04-27T13:44:12.887Z,19.19
2023-04-27T13:46:38.729Z,19.17
2023-04-27T13:49:04.412Z,19.15
2023-04-27T13:51:30.268Z,19.17
2023-04-27T13:53:55.905Z,19.19
2023-04-27T13:56:21.727Z,19.19
2023-04-27T13:58:47.400Z,19.18
2023-04-27T14:01:13.080Z,19.18
2023-04-27T14:03:39.841Z,19.18
2023-04-27T14:06:07.461Z,19.16
2023-04-27T14:08:33.134Z,19.16
2023-04-27T14:10:58.813Z,19.16
2023-04-27T14:13:24.921Z,19.12
2023-04-27T14:15:50.579Z,19.13
2023-04-27T14:18:16.296Z,19.15
2023-04-27T14:20:43.611Z,19.15
2023-04-27T14:23:10.343Z,19.16
2023-04-27T14:25:36.105Z,19.16
2023-04-27T14:28:03.308Z,19.15
2023-04-27T14:30:29.205Z,19.17
2023-04-27T14:32:55.075Z,19.14
2023-04-27T14:35:22.757Z,19.14
2023-04-27T14:37:50.026Z,19.14
2023-04-27T14:40:15.680Z,19.13
2023-04-27T14:42:41.326Z,19.11
2023-04-27T14:45:07.669Z,19.10
2023-04-27T14:47:33.359Z,19.11
2023-04-27T14:49:59.061Z,19.11
2023-04-27T14:52:24.733Z,19.08
2023-04-27T14:54:50.385Z,19.08
2023-04-27T14:57:16.034Z,19.10
2023-04-27T14:59:41.681Z,19.09
2023-04-27T15:02:07.325Z,19.11
2023-04-27T15:04:34.641Z,19.10
2023-04-27T15:07:00.646Z,19.11
2023-04-27T15:09:26.507Z,19.10
2023-04-27T15:11:52.206Z,19.12
2023-04-27T15:14:17.890Z,19.14
2023-04-27T15:16:43.527Z,19.13
2023-04-27T15:19:09.181Z,19.12
2023-04-27T15:21:34.909Z,19.13
2023-04-27T15:24:00.567Z,19.13
2023-04-27T15:26:26.394Z,19.12
2023-04-27T15:28:53.669Z,19.08
2023-04-27T15:31:19.341Z,19.11
2023-04-27T15:33:45.008Z,19.12
2023-04-27T15:36:10.763Z,19.11
2023-04-27T15:38:36.442Z,19.11
2023-04-27T15:41:02.183Z,19.11
2023-04-27T15:43:27.835Z,19.10
2023-04-27T15:45:54.042Z,19.10
2023-04-27T15:48:19.679Z,19.10
2023-04-27T15:50:45.883Z,19.11
2023-04-27T15:53:11.993Z,19.11
2023-04-27T15:55:37.652Z,19.12
2023-04-27T15:58:03.315Z,19.11
2023-04-27T16:00:29.119Z,19.12
2023-04-27T16:02:54.958Z,19.12
2023-04-27T16:05:20.774Z,19.11
2023-04-27T16:07:46.443Z,19.12
2023-04-27T16:10:12.887Z,19.11
2023-04-27T16:12:38.680Z,19.12
2023-04-27T16:15:04.738Z,19.12
2023-04-27T16:17:32.766Z,19.11
2023-04-27T16:19:58.460Z,19.13
2023-04-27T16:22:24.101Z,19.12
2023-04-27T16:24:49.771Z,19.11
2023-04-27T16:27:17.138Z,19.11
2023-04-27T16:29:42.915Z,19.12
2023-04-27T16:32:09.782Z,19.11
2023-04-27T16:34:36.417Z,19.11
2023-04-27T16:37:02.060Z,19.11
2023-04-27T16:39:27.713Z,19.09
2023-04-27T16:41:53.383Z,19.11
2023-04-27T16:44:19.070Z,19.10
2023-04-27T16:46:44.911Z,19.10
2023-04-27T16:49:10.562Z,19.12
2023-04-27T16:51:36.217Z,19.11
2023-04-27T16:54:02.102Z,19.11
2023-04-27T16:56:29.425Z,19.10
2023-04-27T16:58:55.249Z,19.10
2023-04-27T17:01:22.454Z,19.11
2023-04-27T17:03:48.300Z,19.09
2023-04-27T17:06:13.998Z,19.10
2023-04-27T17:08:39.667Z,19.09
2023-04-27T17:11:08.781Z,19.10
2023-04-27T17:13:34.652Z,19.09
2023-04-27T17:16:00.329Z,19.08
2023-04-27T17:18:26.256Z,19.10
2023-04-27T17:20:52.369Z,19.09
2023-04-27T17:23:18.233Z,19.08
2023-04-27T17:25:43.878Z,19.09
2023-04-27T17:28:09.996Z,19.08
2023-04-27T17:30:35.774Z,19.08
2023-04-27T17:33:02.371Z,19.08
2023-04-27T17:35:28.601Z,19.08
2023-04-27T17:37:54.260Z,19.09
2023-04-27T17:40:20.138Z,19.08
2023-04-27T17:42:46.798Z,19.09
2023-04-27T17:45:12.440Z,19.08
2023-04-27T17:47:38.091Z,19.08
2023-04-27T17:50:03.980Z,19.08
2023-04-27T17:52:29.630Z,19.07
2023-04-27T17:54:55.330Z,19.07
2023-04-27T17:57:21.540Z,19.07
2023-04-27T17:59:47.180Z,19.07
2023-04-27T18:02:12.883Z,19.08
2023-04-27T18:04:38.630Z,19.07
2023-04-27T18:07:04.363Z,19.07
2023-04-27T18:09:32.859Z,19.08
2023-04-27T18:11:59.059Z,19.07
2023-04-27T18:14:25.175Z,19.07
2023-04-27T18:16:50.906Z,19.07
2023-04-27T18:19:16.955Z,19.07
2023-04-27T18:21:42.872Z,19.06
2023-04-27T18:24:08.884Z,19.07
2023-04-27T18:26:35.944Z,19.08
2023-04-27T18:29:02.252Z,19.07
2023-04-27T18:31:28.014Z,19.05
2023-04-27T18:33:53.908Z,19.06
2023-04-27T18:36:20.055Z,19.07
2023-04-27T18:38:47.416Z,19.06
2023-04-27T18:41:13.650Z,19.07
2023-04-27T18:43:39.321Z,19.06
2023-04-27T18:46:05.168Z,19.05
2023-04-27T18:48:31.499Z,19.05
2023-04-27T18:50:57.202Z,19.05
2023-04-27T18:53:23.111Z,19.05
2023-04-27T18:55:48.752Z,19.04
2023-04-27T18:58:14.420Z,19.05
2023-04-27T19:00:40.072Z,19.05
2023-04-27T19:03:06.080Z,19.05
2023-04-27T19:05:32.155Z,19.05
2023-04-27T19:07:57.957Z,19.06
2023-04-27T19:10:23.632Z,19.05
2023-04-27T19:12:49.350Z,19.05
2023-04-27T19:15:15.114Z,19.07
2023-04-27T19:17:40.902Z,19.07
2023-04-27T19:20:07.881Z,19.05
2023-04-27T19:22:35.898Z,19.05
2023-04-27T19:25:03.503Z,19.04
2023-04-27T19:27:29.262Z,19.05
2023-04-27T19:29:56.728Z,19.05
2023-04-27T19:32:26.517Z,19.05
2023-04-27T19:34:54.195Z,19.04
2023-04-27T19:37:19.929Z,19.04
2023-04-27T19:39:46.114Z,19.04
2023-04-27T19:42:11.796Z,19.04
2023-04-27T19:44:37.446Z,19.05
2023-04-27T19:47:03.125Z,19.04
2023-04-27T19:49:31.807Z,19.05
2023-04-27T19:51:58.486Z,19.04
2023-04-27T19:54:24.140Z,19.03
2023-04-27T19:56:49.781Z,19.04
2023-04-27T19:59:15.447Z,19.04
2023-04-27T20:01:41.377Z,19.04
2023-04-27T20:04:07.271Z,19.03
2023-04-27T20:06:33.497Z,19.03
2023-04-27T20:08:59.224Z,19.04
2023-04-27T20:11:24.902Z,19.04
2023-04-27T20:13:50.634Z,19.02
2023-04-27T20:16:17.525Z,19.03
2023-04-27T20:18:44.435Z,19.03
2023-04-27T20:21:10.595Z,19.04
2023-04-27T20:23:36.552Z,19.03
2023-04-27T20:26:02.301Z,19.02
2023-04-27T20:28:29.862Z,19.03
2023-04-27T20:30:56.165Z,19.03
2023-04-27T20:33:21.983Z,19.03
2023-04-27T20:35:47.696Z,19.03
2023-04-27T20:38:13.334Z,19.03
2023-04-27T20:40:39.202Z,19.02
2023-04-27T20:43:04.866Z,19.03
2023-04-27T20:45:30.535Z,19.03
2023-04-27T20:47:56.667Z,19.03
2023-04-27T20:50:22.777Z,19.02
2023-04-27T20:52:48.434Z,19.02
2023-04-27T20:55:14.270Z,19.03
2023-04-27T20:57:40.050Z,19.03
2023-04-27T21:00:09.071Z,19.03
2023-04-27T21:02:35.460Z,19.02
2023-04-27T21:05:01.186Z,19.02
2023-04-27T21:07:27.087Z,19.02
2023-04-27T21:09:52.753Z,19.02
2023-04-27T21:12:18.407Z,19.02
2023-04-27T21:14:44.310Z,19.02
2023-04-27T21:17:10.308Z,19.00
2023-04-27T21:19:36.126Z,19.02
2023-04-27T21:22:02.056Z,19.02
2023-04-27T21:24:27.736Z,19.01
2023-04-27T21:26:53.365Z,19.02
2023-04-27T21:29:19.014Z,19.01
2023-04-27T21:31:44.679Z,19.02
2023-04-27T21:34:10.373Z,19.02
2023-04-27T21:36:36.539Z,19.01
2023-04-27T21:39:02.219Z,19.01
2023-04-27T21:41:27.910Z,19.01
2023-04-27T21:43:53.567Z,19.01
2023-04-27T21:46:19.316Z,19.01
2023-04-27T21:48:44.963Z,19.01
2023-04-27T21:51:10.595Z,19.00
2023-04-27T21:53:36.390Z,19.01
2023-04-27T21:56:02.065Z,19.00
2023-04-27T21:58:27.779Z,19.01
2023-04-27T22:00:53.447Z,18.99
2023-04-27T22:03:19.238Z,19.00
2023-04-27T22:05:47.939Z,19.01
2023-04-27T22:08:13.737Z,19.01
2023-04-27T22:10:39.440Z,19.00
2023-04-27T22:13:17.709Z,19.00
2023-04-27T22:15:45.193Z,19.01
2023-04-27T22:18:11.331Z,19.00
2023-04-27T22:20:37.633Z,19.00
2023-04-27T22:23:03.306Z,19.00
2023-04-27T22:25:29.058Z,19.00
2023-04-27T22:27:54.803Z,19.01
2023-04-27T22:30:20.438Z,19.00
2023-04-27T22:32:46.578Z,19.01
2023-04-27T22:35:24.894Z,19.00
2023-04-27T22:37:51.822Z,19.01
2023-04-27T22:40:17.523Z,19.01
2023-04-27T22:42:43.168Z,19.00
2023-04-27T22:45:09.562Z,19.00
2023-04-27T22:47:35.269Z,18.99
2023-04-27T22:50:01.051Z,19.00
2023-04-27T22:52:26.832Z,19.00
2023-04-27T22:54:52.548Z,19.01
2023-04-27T22:57:18.207Z,18.99
2023-04-27T22:59:43.914Z,18.99
2023-04-27T23:02:10.262Z,19.00
2023-04-27T23:04:35.948Z,18.99
2023-04-27T23:07:01.606Z,19.00
2023-04-27T23:09:27.278Z,18.99
2023-04-27T23:11:52.925Z,18.99
2023-04-27T23:14:18.577Z,18.99
2023-04-27T23:16:45.559Z,18.99
2023-04-27T23:19:11.972Z,18.98
2023-04-27T23:21:37.823Z,18.98
2023-04-27T23:24:03.784Z,18.99
2023-04-27T23:26:29.489Z,18.99
2023-04-27T23:28:55.357Z,18.98
2023-04-27T23:31:22.386Z,18.99
2023-04-27T23:33:48.145Z,18.98
2023-04-27T23:36:13.807Z,18.98
2023-04-27T23:38:39.583Z,18.98
2023-04-27T23:41:05.240Z,18.99
2023-04-27T23:43:30.981Z,18.98
2023-04-27T23:45:56.644Z,18.99
2023-04-27T23:48:22.337Z,18.97
2023-04-27T23:50:48.030Z,18.98
2023-04-27T23:53:13.818Z,18.97
2023-04-27T23:55:39.542Z,18.99
2023-04-27T23:58:05.192Z,18.97
